TimePST,TemperatureF,Dew PointF,Humidity,Sea Level PressureIn,VisibilityMPH,Wind Direction,Wind SpeedMPH,Gust SpeedMPH,PrecipitationIn,Events,Conditions,WindDirDegrees,DateUTC
12:56 AM,33.1,28.9,85,29.77,10.0,WSW,3.5,-,N/A,,Overcast,250,2012-11-09 08:56:00
1:56 AM,32.0,28.9,88,29.79,10.0,Calm,Calm,-,N/A,,Overcast,0,2012-11-09 09:56:00
2:56 AM,30.9,28.0,89,29.80,9.0,Calm,Calm,-,N/A,,Overcast,0,2012-11-09 10:56:00
3:56 AM,30.0,28.0,92,29.81,10.0,Calm,Calm,-,N/A,,Overcast,0,2012-11-09 11:56:00
4:15 AM,30.2,28.4,93,29.77,10.0,Calm,Calm,-,N/A,,Overcast,0,2012-11-09 12:15:00
4:53 AM,32.0,30.2,93,29.77,8.0,SW,3.5,-,0.00,,Overcast,230,2012-11-09 12:53:00
4:56 AM,32.0,30.0,92,29.82,9.0,Calm,Calm,-,0.00,,Overcast,0,2012-11-09 12:56:00
5:34 AM,32.0,30.2,93,29.78,10.0,WSW,3.5,-,N/A,,Overcast,240,2012-11-09 13:34:00
5:56 AM,32.0,30.0,92,29.82,10.0,Calm,Calm,-,N/A,,Overcast,0,2012-11-09 13:56:00
6:21 AM,30.2,30.2,100,29.78,10.0,Calm,Calm,-,N/A,,Overcast,0,2012-11-09 14:21:00
6:47 AM,30.2,28.4,93,29.78,10.0,Calm,Calm,-,N/A,,Mostly Cloudy,0,2012-11-09 14:47:00
6:56 AM,30.0,28.0,92,29.83,10.0,Calm,Calm,-,N/A,,Overcast,0,2012-11-09 14:56:00
7:46 AM,32.0,30.2,93,29.80,10.0,Calm,Calm,-,N/A,,Overcast,0,2012-11-09 15:46:00
7:56 AM,32.0,28.9,88,29.84,10.0,Calm,Calm,-,N/A,,Overcast,0,2012-11-09 15:56:00
8:10 AM,32.0,28.4,87,29.80,10.0,Calm,Calm,-,N/A,,Mostly Cloudy,0,2012-11-09 16:10:00
8:56 AM,34.0,28.9,82,29.84,10.0,Calm,Calm,-,N/A,,Overcast,0,2012-11-09 16:56:00
9:56 AM,37.9,23.0,55,29.84,10.0,WNW,8.1,-,N/A,,Mostly Cloudy,290,2012-11-09 17:56:00
10:56 AM,37.9,21.9,53,29.83,10.0,NW,9.2,-,N/A,,Mostly Cloudy,320,2012-11-09 18:56:00
11:56 AM,37.9,24.1,57,29.82,5.0,North,3.5,-,0.00,Snow,Light Snow,350,2012-11-09 19:56:00
12:56 PM,39.9,18.0,41,29.80,10.0,Variable,3.5,-,0.00,,Mostly Cloudy,0,2012-11-09 20:56:00
1:56 PM,39.9,19.9,45,29.80,10.0,North,8.1,-,N/A,,Overcast,350,2012-11-09 21:56:00
2:56 PM,41.0,17.1,38,29.79,10.0,WNW,6.9,-,N/A,,Clear,300,2012-11-09 22:56:00
3:56 PM,37.0,24.1,59,29.80,10.0,NE,4.6,-,N/A,,Partly Cloudy,40,2012-11-09 23:56:00
4:56 PM,36.0,24.1,62,29.81,10.0,Calm,Calm,-,N/A,,Overcast,0,2012-11-10 00:56:00
5:56 PM,34.0,24.1,67,29.83,10.0,North,4.6,-,N/A,,Overcast,360,2012-11-10 01:56:00
6:56 PM,32.0,28.0,85,29.84,4.0,WNW,8.1,-,0.00,Snow,Light Snow,300,2012-11-10 02:56:00
7:15 PM,32.0,28.4,87,29.79,2.5,WNW,5.8,-,0.00,Snow,Light Snow,300,2012-11-10 03:15:00
7:22 PM,32.0,28.4,87,29.79,1.8,WNW,5.8,-,0.00,Snow,Light Snow,300,2012-11-10 03:22:00
7:44 PM,30.2,28.4,93,29.79,0.8,NNW,4.6,-,0.01,Snow,Light Snow,330,2012-11-10 03:44:00
7:56 PM,30.9,30.0,96,29.84,0.8,NNW,5.8,-,0.02,Snow,Light Snow,330,2012-11-10 03:56:00
8:10 PM,30.2,28.4,93,29.79,1.0,North,5.8,-,0.00,Snow,Light Snow,360,2012-11-10 04:10:00
8:19 PM,30.2,28.4,93,29.79,1.0,North,4.6,-,0.01,Snow,Light Snow,10,2012-11-10 04:19:00
8:31 PM,30.2,28.4,93,29.79,2.0,NNE,4.6,-,0.01,Snow,Light Snow,30,2012-11-10 04:31:00
8:48 PM,30.2,28.4,93,29.80,1.8,Calm,Calm,-,0.01,Snow,Light Snow,0,2012-11-10 04:48:00
8:56 PM,30.9,28.9,92,29.85,2.0,Calm,Calm,-,0.01,Snow,Light Snow,0,2012-11-10 04:56:00
9:04 PM,30.2,28.4,93,29.80,3.0,Calm,Calm,-,0.02,Snow,Light Snow,0,2012-11-10 05:04:00
9:15 PM,30.2,28.4,93,29.80,4.0,Calm,Calm,-,0.02,Snow,Light Snow,0,2012-11-10 05:15:00
9:56 PM,30.0,28.9,96,29.85,4.0,Calm,Calm,-,0.02,Snow,Light Snow,0,2012-11-10 05:56:00
10:03 PM,30.2,28.4,93,29.80,1.8,Calm,Calm,-,0.00,Snow,Light Snow,0,2012-11-10 06:03:00
10:16 PM,30.2,28.4,93,29.80,2.0,Calm,Calm,-,0.00,Snow,Light Snow,0,2012-11-10 06:16:00
10:27 PM,30.2,28.4,93,29.80,2.5,Calm,Calm,-,0.00,Snow,Light Snow,0,2012-11-10 06:27:00
10:42 PM,30.2,28.4,93,29.80,2.5,WSW,3.5,-,0.00,Snow,Light Snow,240,2012-11-10 06:42:00
10:56 PM,30.9,28.9,92,29.85,3.0,WNW,4.6,-,0.00,Snow,Light Snow,300,2012-11-10 06:56:00
11:06 PM,30.2,28.4,93,29.80,2.0,North,3.5,-,0.00,Snow,Light Snow,10,2012-11-10 07:06:00
11:09 PM,30.2,28.4,93,29.80,1.8,NNE,4.6,-,0.00,Snow,Light Snow,20,2012-11-10 07:09:00
11:16 PM,30.2,28.4,93,29.81,3.0,Calm,Calm,-,0.00,Snow,Light Snow,0,2012-11-10 07:16:00
11:23 PM,30.2,28.4,93,29.81,4.0,Calm,Calm,-,0.00,Snow,Light Snow,0,2012-11-10 07:23:00
11:42 PM,30.2,28.4,93,29.81,2.5,Calm,Calm,-,0.01,Snow,Light Snow,0,2012-11-10 07:42:00
11:48 PM,30.2,28.4,93,29.81,6.0,Calm,Calm,-,0.01,Snow,Light Snow,0,2012-11-10 07:48:00
11:56 PM,30.0,28.9,96,29.86,10.0,Calm,Calm,-,0.01,,Overcast,0,2012-11-10 07:56:00